Time;durP1;ratioP1;P1;durP2;ratioP2;P2;SDS_P1;SDS_P2;PMS_P1;PMS_P2;Temp;Humidity;BMP_temperature;BMP_pressure;BME280_temperature;BME280_humidity;BME280_pressure;Samples;Min_cycle;Max_cycle;Signal;HPM_P1;HPM_P2
2022/01/22 00:00:48;;;;;;;28.77;3.10;;;7.70;99.90;;;;;;5093202;28;20059;-79
2022/01/22 00:03:14;;;;;;;41.70;3.47;;;7.80;99.90;;;;;;5092751;28;20051;-79
2022/01/22 00:05:41;;;;;;;28.88;3.50;;;7.90;99.90;;;;;;5092292;28;20047;-79
2022/01/22 00:08:07;;;;;;;36.17;5.35;;;7.90;99.90;;;;;;5092650;28;20056;-79
2022/01/22 00:10:34;;;;;;;17.35;3.15;;;7.90;99.90;;;;;;5097065;28;20044;-79
2022/01/22 00:15:28;;;;;;;40.25;3.92;;;7.90;99.90;;;;;;5096524;28;20398;-79
2022/01/22 00:17:54;;;;;;;32.25;3.45;;;7.90;99.90;;;;;;5130942;27;20048;-80
2022/01/22 00:20:26;;;;;;;34.58;3.20;;;7.90;99.90;;;;;;5079565;28;20456;-80
2022/01/22 00:22:53;;;;;;;43.20;3.85;;;7.90;99.90;;;;;;5096353;28;20420;-79
2022/01/22 00:25:21;;;;;;;30.42;3.08;;;7.90;99.90;;;;;;5079506;28;20070;-80
2022/01/22 00:27:49;;;;;;;32.67;3.10;;;7.90;99.90;;;;;;5096374;28;20048;-80
2022/01/22 00:30:23;;;;;;;25.52;2.20;;;7.90;99.90;;;;;;5096573;28;20036;-80
2022/01/22 00:32:50;;;;;;;35.67;3.90;;;7.90;99.90;;;;;;5096871;28;20047;-80
2022/01/22 00:35:16;;;;;;;28.95;3.45;;;7.80;99.90;;;;;;5096171;28;20093;-79
2022/01/22 00:37:45;;;;;;;28.42;3.25;;;7.90;99.90;;;;;;5096661;28;20048;-80
2022/01/22 00:40:11;;;;;;;26.80;2.70;;;7.80;99.90;;;;;;5097086;28;20136;-80
2022/01/22 00:42:38;;;;;;;37.67;3.40;;;7.90;99.90;;;;;;5079305;28;20048;-80
2022/01/22 00:45:05;;;;;;;37.60;4.13;;;8.00;99.90;;;;;;5097308;28;20071;-80
2022/01/22 00:47:31;;;;;;;37.92;3.78;;;8.00;99.90;;;;;;5097271;28;20047;-80
2022/01/22 00:49:56;;;;;;;42.47;4.53;;;8.00;99.90;;;;;;5096159;28;20098;-80
2022/01/22 00:52:22;;;;;;;30.40;2.83;;;8.00;99.90;;;;;;5095525;28;20090;-80
2022/01/22 00:54:48;;;;;;;35.65;3.90;;;8.00;99.90;;;;;;5096527;28;20047;-80
2022/01/22 00:57:13;;;;;;;31.92;3.22;;;8.00;99.90;;;;;;5079454;28;20048;-80
2022/01/22 00:59:39;;;;;;;32.72;3.00;;;8.00;99.90;;;;;;5095904;28;20505;-80
2022/01/22 01:02:05;;;;;;;29.35;2.42;;;8.00;99.90;;;;;;5096230;28;20557;-80
2022/01/22 01:04:34;;;;;;;18.42;1.88;;;7.90;99.90;;;;;;5095780;28;20051;-80
2022/01/22 01:07:00;;;;;;;27.58;3.00;;;7.90;99.90;;;;;;5095103;28;20056;-79
2022/01/22 01:09:26;;;;;;;17.60;1.85;;;7.90;99.90;;;;;;5095842;28;20105;-80
2022/01/22 01:11:56;;;;;;;27.08;2.72;;;7.80;99.90;;;;;;5095959;28;20131;-80
2022/01/22 01:14:30;;;;;;;28.67;2.58;;;7.90;99.90;;;;;;5095806;28;20059;-80
2022/01/22 01:33:36;;;;;;;36.15;3.83;;;7.90;99.90;;;;;;5080793;28;20059;-80
2022/01/22 01:36:04;;;;;;;30.10;4.20;;;7.90;99.90;;;;;;5095392;28;20399;-80
2022/01/22 01:38:35;;;;;;;27.50;3.40;;;7.90;99.90;;;;;;5096395;28;20056;-80
2022/01/22 01:41:08;;;;;;;25.30;3.15;;;8.00;99.90;;;;;;5096021;28;20055;-80
2022/01/22 01:43:37;;;;;;;16.25;2.08;;;7.90;99.90;;;;;;5078519;28;20479;-80
2022/01/22 01:46:03;;;;;;;19.60;2.17;;;7.90;99.90;;;;;;5094836;28;20055;-80
2022/01/22 01:48:30;;;;;;;17.00;1.95;;;7.80;99.90;;;;;;5094816;28;20048;-80
2022/01/22 01:50:58;;;;;;;19.92;2.05;;;7.90;99.90;;;;;;5094559;28;20522;-80
2022/01/22 01:57:27;;;;;;;16.73;1.60;;;8.00;99.90;;;;;;5094573;28;20044;-80
2022/01/22 01:58:55;;;;;;;12.18;1.35;;;8.10;99.90;;;;;;5094946;28;20048;-80
2022/01/22 02:01:21;;;;;;;12.52;1.48;;;8.10;99.90;;;;;;5094342;28;20513;-80
2022/01/22 02:03:47;;;;;;;12.18;1.67;;;8.10;99.90;;;;;;5094999;28;20048;-80
2022/01/22 02:06:13;;;;;;;18.75;1.58;;;7.90;99.90;;;;;;5094642;28;20396;-80
2022/01/22 02:08:39;;;;;;;10.02;1.85;;;7.90;99.90;;;;;;5093841;28;20490;-80
2022/01/22 02:11:06;;;;;;;12.60;1.75;;;7.80;99.90;;;;;;5094394;28;20048;-79
2022/01/22 02:14:01;;;;;;;15.20;1.60;;;7.90;99.90;;;;;;5077877;28;20041;-80
2022/01/22 02:24:45;;;;;;;19.85;2.55;;;7.90;99.90;;;;;;5095122;28;20055;-80
2022/01/22 02:27:11;;;;;;;26.90;3.28;;;7.90;99.90;;;;;;5094522;28;20478;-80
2022/01/22 02:29:37;;;;;;;20.13;2.80;;;8.00;99.90;;;;;;5094101;28;20043;-80
2022/01/22 02:33:03;;;;;;;14.90;2.70;;;8.00;99.90;;;;;;5093125;28;20139;-80
2022/01/22 02:34:54;;;;;;;14.63;2.05;;;7.80;99.90;;;;;;5086297;28;20044;-80
2022/01/22 02:37:22;;;;;;;13.85;2.10;;;8.00;99.90;;;;;;5077148;28;20051;-80
2022/01/22 02:40:02;;;;;;;14.00;2.20;;;8.00;99.90;;;;;;5095092;28;20048;-80
2022/01/22 02:42:31;;;;;;;23.23;2.15;;;7.90;99.90;;;;;;5095125;28;20048;-80
2022/01/22 02:44:57;;;;;;;18.13;3.08;;;7.90;99.90;;;;;;5093926;28;20062;-80
2022/01/22 02:47:23;;;;;;;16.83;2.40;;;8.00;99.90;;;;;;5093727;28;20044;-80
2022/01/22 02:49:49;;;;;;;14.15;2.70;;;8.00;99.90;;;;;;5077149;28;20063;-80
2022/01/22 02:52:19;;;;;;;22.08;3.13;;;8.00;99.90;;;;;;5093755;28;20395;-80
2022/01/22 02:54:46;;;;;;;17.83;2.22;;;8.00;99.90;;;;;;5093730;28;20461;-80
2022/01/22 02:57:13;;;;;;;19.83;2.03;;;8.00;99.90;;;;;;5093545;28;20156;-80
2022/01/22 02:59:39;;;;;;;12.65;2.00;;;8.10;99.90;;;;;;5076635;28;20395;-80
2022/01/22 03:02:05;;;;;;;18.02;2.33;;;8.00;99.90;;;;;;5093605;28;20105;-80
2022/01/22 03:04:32;;;;;;;16.98;2.58;;;8.10;99.90;;;;;;5077897;28;20055;-80
2022/01/22 03:06:57;;;;;;;24.77;2.30;;;8.20;99.90;;;;;;5076850;28;20089;-80
2022/01/22 03:09:28;;;;;;;9.10;1.83;;;8.10;99.90;;;;;;5076534;28;20056;-80
2022/01/22 03:27:49;;;;;;;8.80;1.27;;;7.90;99.90;;;;;;5093297;28;20109;-80
2022/01/22 03:30:16;;;;;;;14.10;1.65;;;7.80;99.90;;;;;;5076701;28;20434;-80
2022/01/22 03:32:45;;;;;;;15.32;1.92;;;7.90;99.90;;;;;;5094222;28;20040;-80
2022/01/22 03:35:35;;;;;;;12.75;1.80;;;7.80;99.90;;;;;;5094053;28;20040;-80
2022/01/22 03:37:58;;;;;;;14.07;1.65;;;7.80;99.90;;;;;;5092511;28;20095;-80
2022/01/22 03:40:26;;;;;;;17.17;2.08;;;7.90;99.90;;;;;;5076084;28;20055;-80
2022/01/22 03:42:53;;;;;;;15.25;1.92;;;7.90;99.90;;;;;;5093677;28;20093;-80
2022/01/22 03:45:21;;;;;;;16.88;2.28;;;8.00;99.90;;;;;;5076736;28;20051;-80
2022/01/22 03:47:47;;;;;;;12.82;2.22;;;8.10;99.90;;;;;;5092863;28;20048;-80
2022/01/22 03:50:14;;;;;;;13.45;1.70;;;8.20;99.90;;;;;;5093173;28;20059;-80
2022/01/22 03:52:40;;;;;;;15.32;1.45;;;8.20;99.90;;;;;;5092389;28;20376;-80
2022/01/22 03:55:10;;;;;;;12.88;1.80;;;8.20;99.90;;;;;;5092432;28;20455;-80
2022/01/22 03:57:37;;;;;;;10.38;1.75;;;8.10;99.90;;;;;;5092652;28;20036;-80
2022/01/22 04:00:06;;;;;;;9.57;1.90;;;8.10;99.90;;;;;;5092717;28;20437;-80
2022/01/22 04:03:21;;;;;;;9.35;1.67;;;8.10;99.90;;;;;;5092675;28;20087;-80
2022/01/22 04:05:42;;;;;;;11.30;1.77;;;8.20;99.90;;;;;;5093590;28;20052;-80
2022/01/22 04:08:14;;;;;;;13.45;2.08;;;8.20;99.90;;;;;;5077258;28;20063;-80
2022/01/22 04:10:40;;;;;;;15.30;1.77;;;8.20;99.90;;;;;;5092971;28;20051;-80
2022/01/22 04:13:10;;;;;;;16.58;2.20;;;8.20;99.90;;;;;;5093470;28;20044;-80
2022/01/22 04:15:39;;;;;;;11.73;2.42;;;8.20;99.90;;;;;;5076467;28;20127;-80
2022/01/22 04:28:56;;;;;;;14.35;2.22;;;8.00;99.90;;;;;;5092545;28;20105;-80
2022/01/22 04:31:22;;;;;;;8.88;1.67;;;8.00;99.90;;;;;;5075318;28;20471;-80
2022/01/22 04:33:48;;;;;;;15.60;2.03;;;8.00;99.90;;;;;;5075752;28;20056;-80
2022/01/22 04:36:14;;;;;;;11.38;1.75;;;8.10;99.90;;;;;;5092417;28;20127;-81
2022/01/22 04:38:40;;;;;;;13.27;1.73;;;8.10;99.90;;;;;;5092301;28;20055;-80
2022/01/22 04:41:06;;;;;;;13.45;1.67;;;8.10;99.90;;;;;;5075268;28;20044;-80
2022/01/22 04:43:34;;;;;;;14.05;1.80;;;7.90;99.90;;;;;;5092329;28;20077;-81
2022/01/22 04:56:37;;;;;;;11.68;1.23;;;7.80;99.90;;;;;;5096340;28;20514;-80
2022/01/22 04:59:03;;;;;;;11.68;1.00;;;7.80;99.90;;;;;;5095833;28;20056;-80
2022/01/22 05:01:29;;;;;;;7.72;1.27;;;7.90;99.90;;;;;;5096144;28;20475;-80
2022/01/22 05:03:55;;;;;;;6.85;1.00;;;7.90;99.90;;;;;;5095740;28;20052;-80
2022/01/22 05:06:20;;;;;;;8.15;0.70;;;7.90;99.90;;;;;;5096209;28;20052;-80
2022/01/22 05:08:46;;;;;;;12.52;1.00;;;7.90;99.90;;;;;;5078937;28;20054;-80
2022/01/22 05:11:12;;;;;;;11.63;0.85;;;8.00;99.90;;;;;;5095568;28;20056;-80
2022/01/22 05:13:37;;;;;;;7.68;0.88;;;8.00;99.90;;;;;;5078683;28;20043;-80
2022/01/22 05:16:03;;;;;;;12.70;1.35;;;8.00;99.90;;;;;;5095575;28;20040;-80
2022/01/22 05:18:29;;;;;;;7.78;1.02;;;8.00;99.90;;;;;;5079030;28;20048;-80
2022/01/22 05:21:06;;;;;;;14.43;1.58;;;8.10;99.90;;;;;;5096620;28;20055;-80
2022/01/22 05:23:33;;;;;;;18.95;1.65;;;8.20;99.90;;;;;;5095705;28;20052;-80
2022/01/22 05:26:02;;;;;;;13.65;1.80;;;8.00;99.90;;;;;;5079508;28;20040;-80
2022/01/22 05:39:18;;;;;;;19.52;1.95;;;8.00;99.90;;;;;;5095334;28;20063;-80
2022/01/22 05:41:43;;;;;;;19.27;2.65;;;8.10;99.90;;;;;;5094783;28;20036;-80
2022/01/22 05:44:09;;;;;;;14.52;2.10;;;8.20;99.90;;;;;;5095284;28;20161;-80
2022/01/22 05:46:35;;;;;;;8.98;1.50;;;8.20;99.90;;;;;;5095245;28;20106;-80
2022/01/22 05:49:01;;;;;;;14.73;1.77;;;8.20;99.90;;;;;;5095098;28;20387;-80
2022/01/22 05:51:27;;;;;;;23.95;2.30;;;8.30;99.90;;;;;;5095132;28;20043;-80
2022/01/22 05:59:41;;;;;;;21.27;1.67;;;8.20;99.90;;;;;;5056890;28;20052;-80
2022/01/22 06:02:08;;;;;;;19.33;3.78;;;8.30;99.90;;;;;;5056929;28;20376;-80
2022/01/22 06:04:35;;;;;;;22.02;2.10;;;8.40;99.90;;;;;;5073113;28;20501;-80
2022/01/22 06:07:04;;;;;;;14.68;1.38;;;8.30;99.90;;;;;;5128108;27;20072;-80
2022/01/22 06:09:31;;;;;;;13.00;1.92;;;8.20;99.90;;;;;;5077545;28;20062;-80
2022/01/22 06:12:15;;;;;;;13.75;1.42;;;8.30;99.90;;;;;;5094416;28;20040;-80
2022/01/22 06:14:41;;;;;;;11.82;1.67;;;8.30;99.90;;;;;;5094562;28;20048;-80
2022/01/22 06:17:07;;;;;;;16.15;1.75;;;8.30;99.90;;;;;;5094327;28;20048;-80
2022/01/22 06:19:32;;;;;;;13.15;1.90;;;8.40;99.90;;;;;;5094250;28;20074;-80
2022/01/22 06:21:59;;;;;;;13.63;1.77;;;8.20;99.90;;;;;;5093768;28;20051;-80
2022/01/22 06:24:24;;;;;;;22.52;2.50;;;8.10;99.90;;;;;;5094374;28;20118;-80
2022/01/22 06:26:50;;;;;;;22.05;2.40;;;8.10;99.90;;;;;;5094389;28;20044;-80
2022/01/22 06:29:16;;;;;;;10.32;2.17;;;8.10;99.90;;;;;;5077088;28;20051;-80
2022/01/22 06:31:42;;;;;;;24.00;2.67;;;8.00;99.90;;;;;;5094095;28;20048;-80
2022/01/22 06:34:08;;;;;;;17.23;2.25;;;8.10;99.90;;;;;;5093953;28;20052;-80
2022/01/22 06:36:34;;;;;;;14.88;2.38;;;8.10;99.90;;;;;;5093871;28;20422;-80
2022/01/22 06:39:13;;;;;;;19.45;2.30;;;8.10;99.90;;;;;;5093966;28;20040;-80
2022/01/22 06:41:46;;;;;;;19.48;2.25;;;8.10;99.90;;;;;;5094251;28;20044;-80
2022/01/22 06:44:17;;;;;;;14.82;2.40;;;8.10;99.90;;;;;;5093852;28;20189;-80
2022/01/22 06:46:46;;;;;;;14.05;2.10;;;8.00;99.90;;;;;;5093886;28;20051;-80
2022/01/22 06:49:12;;;;;;;18.13;2.40;;;7.80;99.90;;;;;;5094140;28;20131;-80
2022/01/22 06:51:38;;;;;;;10.55;1.83;;;7.80;99.90;;;;;;5093220;28;20048;-80
2022/01/22 06:54:09;;;;;;;12.95;1.67;;;7.80;99.90;;;;;;5093588;28;20059;-80
2022/01/22 06:56:35;;;;;;;14.40;1.60;;;7.70;99.90;;;;;;5093859;28;20125;-81
2022/01/22 06:59:02;;;;;;;10.07;2.08;;;7.80;99.90;;;;;;5093433;28;20109;-80
2022/01/22 07:01:28;;;;;;;17.65;2.33;;;7.70;99.90;;;;;;5093393;28;20083;-80
2022/01/22 07:03:55;;;;;;;10.35;1.65;;;7.70;99.90;;;;;;5093527;28;20133;-80
2022/01/22 07:06:22;;;;;;;11.68;1.80;;;7.70;99.90;;;;;;5076435;28;20058;-80
2022/01/22 07:08:48;;;;;;;13.68;1.58;;;7.60;99.90;;;;;;5093060;28;20048;-80
2022/01/22 07:11:14;;;;;;;12.02;1.92;;;7.60;99.90;;;;;;5093295;28;20109;-80
2022/01/22 07:13:40;;;;;;;20.92;2.10;;;7.70;99.90;;;;;;5093291;28;20048;-80
2022/01/22 07:16:07;;;;;;;7.68;1.80;;;7.70;99.90;;;;;;5076039;28;20536;-81
2022/01/22 07:18:33;;;;;;;8.20;1.80;;;7.90;99.90;;;;;;5092852;28;20040;-81
2022/01/22 07:21:02;;;;;;;9.95;2.15;;;7.90;99.90;;;;;;5093131;28;20054;-80
2022/01/22 07:23:56;;;;;;;15.88;2.10;;;7.80;99.90;;;;;;5093002;28;20051;-80
2022/01/22 07:26:17;;;;;;;12.93;1.65;;;7.80;99.90;;;;;;5092884;28;20055;-80
2022/01/22 07:28:43;;;;;;;8.93;1.75;;;7.70;99.90;;;;;;5076328;28;20379;-80
2022/01/22 07:31:09;;;;;;;11.00;1.98;;;7.70;99.90;;;;;;5093437;28;20407;-80
2022/01/22 07:33:35;;;;;;;14.25;1.77;;;7.80;99.90;;;;;;5093045;28;20044;-80
2022/01/22 07:36:03;;;;;;;12.38;2.08;;;7.70;99.90;;;;;;5092638;28;20075;-80
2022/01/22 07:38:28;;;;;;;12.82;1.98;;;7.70;99.90;;;;;;5092851;28;20071;-80
2022/01/22 07:40:54;;;;;;;9.02;1.92;;;7.60;99.90;;;;;;5092918;28;20499;-80
2022/01/22 07:43:20;;;;;;;17.42;2.50;;;7.60;99.90;;;;;;5092597;28;20040;-80
2022/01/22 07:45:46;;;;;;;13.02;2.53;;;7.60;99.90;;;;;;5092841;28;20077;-80
2022/01/22 07:48:11;;;;;;;17.75;2.80;;;7.70;99.90;;;;;;5092612;28;20048;-80
2022/01/22 07:50:37;;;;;;;13.82;2.15;;;7.60;99.90;;;;;;5127022;28;20043;-80
2022/01/22 07:53:24;;;;;;;10.57;2.35;;;7.50;99.90;;;;;;5092915;28;20134;-80
2022/01/22 07:55:50;;;;;;;;;;;7.60;99.90;;;;;;5093904;28;20059;-80
2022/01/22 07:58:15;;;;;;;16.73;2.40;;;7.60;99.90;;;;;;5093503;28;19920;-80
2022/01/22 08:00:41;;;;;;;11.20;2.20;;;7.70;99.90;;;;;;5093453;28;20072;-80
2022/01/22 08:03:08;;;;;;;12.65;2.00;;;7.60;99.90;;;;;;5076685;28;20055;-80
2022/01/22 08:05:35;;;;;;;9.68;1.98;;;7.50;99.90;;;;;;5093342;28;20052;-80
2022/01/22 08:08:00;;;;;;;5.90;1.50;;;7.60;99.90;;;;;;5126535;28;20105;-80
2022/01/22 08:10:26;;;;;;;8.35;1.70;;;7.50;99.90;;;;;;5075834;28;20044;-80
2022/01/22 08:12:53;;;;;;;6.07;1.40;;;7.60;99.90;;;;;;5093371;28;20076;-80
2022/01/22 08:15:19;;;;;;;2.97;1.08;;;7.60;99.90;;;;;;5075710;28;20040;-80
2022/01/22 08:17:45;;;;;;;8.63;1.45;;;7.70;99.90;;;;;;5075752;28;20044;-80
2022/01/22 08:20:13;;;;;;;6.97;1.65;;;7.80;99.90;;;;;;5075921;28;20058;-80
2022/01/22 08:22:39;;;;;;;10.23;2.22;;;7.80;99.90;;;;;;5075427;28;20047;-80
2022/01/22 08:25:06;;;;;;;13.70;1.80;;;7.80;99.90;;;;;;5092563;28;20471;-80
2022/01/22 08:27:36;;;;;;;10.77;2.00;;;7.80;99.90;;;;;;5058974;28;20056;-80
2022/01/22 08:30:03;;;;;;;10.77;1.80;;;7.80;99.90;;;;;;5094860;28;20051;-80
2022/01/22 08:32:54;;;;;;;4.85;1.50;;;7.80;99.90;;;;;;5130841;27;20440;-80
2022/01/22 08:37:58;;;;;;;11.45;1.55;;;8.00;99.90;;;;;;5096630;28;20097;-81
2022/01/22 08:40:24;;;;;;;13.65;1.60;;;7.90;99.90;;;;;;5096103;28;20130;-81
2022/01/22 08:42:50;;;;;;;11.35;1.40;;;7.90;99.90;;;;;;5096239;28;20047;-81
2022/01/22 08:45:16;;;;;;;17.35;1.85;;;7.90;99.90;;;;;;5096091;28;20056;-81
2022/01/22 08:47:41;;;;;;;17.23;1.60;;;8.00;99.90;;;;;;5096558;28;20055;-81
2022/01/22 08:50:07;;;;;;;12.50;1.20;;;8.00;99.90;;;;;;5096296;28;20051;-81
2022/01/22 08:52:35;;;;;;;17.13;1.75;;;7.90;99.90;;;;;;5078753;28;20372;-81
2022/01/22 08:55:03;;;;;;;10.77;2.08;;;8.00;99.90;;;;;;5095768;28;20086;-81
2022/01/22 08:57:28;;;;;;;16.15;1.88;;;8.10;99.90;;;;;;5096135;28;20044;-81
2022/01/22 08:59:54;;;;;;;13.23;2.17;;;8.20;99.90;;;;;;5130002;27;20040;-72
2022/01/22 09:02:20;;;;;;;11.77;1.48;;;8.10;99.90;;;;;;5095534;28;20087;-73
2022/01/22 09:04:47;;;;;;;11.07;1.90;;;8.10;99.90;;;;;;5100458;28;20051;-71
2022/01/22 09:07:13;;;;;;;9.85;1.77;;;8.10;99.90;;;;;;5102443;28;20075;-72
2022/01/22 09:09:39;;;;;;;7.85;1.45;;;8.10;99.90;;;;;;5078966;28;20143;-73
2022/01/22 09:12:07;;;;;;;7.13;1.30;;;7.90;99.90;;;;;;5096551;28;20094;-72
2022/01/22 09:14:33;;;;;;;15.07;1.90;;;7.90;99.90;;;;;;5096429;28;20123;-72
2022/01/22 09:16:59;;;;;;;10.88;1.48;;;8.00;99.90;;;;;;5096726;28;20044;-72
2022/01/22 09:19:34;;;;;;;11.85;1.48;;;8.00;99.90;;;;;;5096462;28;20056;-72
2022/01/22 09:22:02;;;;;;;10.02;1.63;;;8.10;99.90;;;;;;5096386;28;20043;-73
2022/01/22 09:24:27;;;;;;;13.15;1.83;;;8.10;99.90;;;;;;5096320;28;20085;-72
2022/01/22 09:26:53;;;;;;;9.70;1.52;;;7.90;99.90;;;;;;5095066;28;20040;-72
2022/01/22 09:29:20;;;;;;;8.60;1.10;;;8.00;99.90;;;;;;5096268;28;20044;-72
2022/01/22 09:31:46;;;;;;;12.98;1.95;;;8.00;99.90;;;;;;5096385;28;20122;-72
2022/01/22 09:34:13;;;;;;;11.57;1.10;;;8.00;99.90;;;;;;5078279;28;20173;-74
2022/01/22 09:36:39;;;;;;;12.55;1.60;;;8.10;99.90;;;;;;5063282;28;20059;-72
2022/01/22 09:39:05;;;;;;;10.40;1.35;;;8.10;99.90;;;;;;5095087;28;20044;-72
2022/01/22 09:41:31;;;;;;;8.55;1.55;;;8.10;99.90;;;;;;5095684;28;20044;-72
2022/01/22 09:43:57;;;;;;;12.15;1.85;;;8.20;99.90;;;;;;5096082;28;20449;-72
2022/01/22 09:46:28;;;;;;;12.73;1.70;;;8.30;99.90;;;;;;5096153;28;20048;-75
2022/01/22 09:48:55;;;;;;;11.93;2.05;;;8.30;99.90;;;;;;5095321;28;20105;-73
2022/01/22 09:51:22;;;;;;;8.05;1.73;;;8.30;99.90;;;;;;5095825;28;20044;-73
2022/01/22 09:53:48;;;;;;;10.88;1.65;;;8.30;99.90;;;;;;5094254;28;20054;-73
2022/01/22 09:56:20;;;;;;;10.52;1.85;;;8.30;99.90;;;;;;5096052;28;20383;-72
2022/01/22 09:58:47;;;;;;;8.52;1.63;;;8.40;99.90;;;;;;5094889;28;20059;-72
2022/01/22 10:01:23;;;;;;;9.95;1.77;;;8.50;99.90;;;;;;5095661;28;20105;-72
2022/01/22 10:03:49;;;;;;;14.63;1.67;;;8.50;99.90;;;;;;5094347;28;20499;-73
2022/01/22 10:06:21;;;;;;;13.15;2.00;;;8.50;99.90;;;;;;5095488;28;20052;-72
2022/01/22 10:08:47;;;;;;;11.93;1.77;;;8.60;99.90;;;;;;5095309;28;20056;-72
2022/01/22 10:11:26;;;;;;;14.38;1.80;;;8.60;99.90;;;;;;5095455;28;20526;-72
2022/01/22 10:13:54;;;;;;;11.25;2.10;;;8.60;99.90;;;;;;5095356;28;20090;-72
2022/01/22 10:16:19;;;;;;;12.55;2.00;;;8.60;99.90;;;;;;5094049;28;20494;-72
2022/01/22 10:19:06;;;;;;;13.27;2.03;;;8.70;99.90;;;;;;5095302;28;20091;-73
2022/01/22 10:21:32;;;;;;;9.95;2.28;;;8.70;99.90;;;;;;5094379;28;20055;-72
2022/01/22 10:27:39;;;;;;;14.32;2.10;;;8.90;99.90;;;;;;5095142;28;20058;-72
2022/01/22 10:30:17;;;;;;;15.20;2.03;;;9.00;99.90;;;;;;5095169;28;20048;-72
2022/01/22 10:33:21;;;;;;;11.75;2.00;;;9.00;99.90;;;;;;5095026;28;20044;-72
2022/01/22 10:35:36;;;;;;;14.70;1.88;;;9.00;99.90;;;;;;5091264;28;20398;-73
2022/01/22 10:38:03;;;;;;;10.52;1.83;;;8.90;99.90;;;;;;5094918;28;20051;-72
2022/01/22 10:40:32;;;;;;;11.02;2.17;;;8.90;99.90;;;;;;5076928;28;20124;-73
2022/01/22 10:43:32;;;;;;;11.60;2.00;;;8.80;99.90;;;;;;5094866;28;20056;-73
2022/01/22 10:48:59;;;;;;;8.95;1.83;;;9.00;99.90;;;;;;5094410;28;20139;-72
2022/01/22 10:51:27;;;;;;;13.63;2.47;;;8.80;99.90;;;;;;5094284;28;20052;-72
2022/01/22 10:53:57;;;;;;;11.68;2.30;;;8.80;99.90;;;;;;5093925;28;20118;-73
2022/01/22 10:56:24;;;;;;;13.88;1.98;;;8.80;99.90;;;;;;5094686;28;20148;-73
2022/01/22 10:59:07;;;;;;;10.48;2.10;;;8.90;99.90;;;;;;5093726;28;20060;-72
2022/01/22 11:01:53;;;;;;;15.05;3.53;;;9.00;99.90;;;;;;5094559;28;20052;-72
2022/01/22 11:04:22;;;;;;;14.77;1.92;;;9.10;99.90;;;;;;5095431;28;20040;-81
2022/01/22 11:06:59;;;;;;;13.93;2.50;;;9.00;99.90;;;;;;5093884;28;20052;-82
2022/01/22 11:09:28;;;;;;;14.88;2.38;;;9.00;99.90;;;;;;5094022;28;20055;-73
2022/01/22 11:11:55;;;;;;;9.52;1.42;;;9.20;99.90;;;;;;5088625;28;20059;-74
2022/01/22 11:14:21;;;;;;;10.80;1.90;;;9.30;99.90;;;;;;5063481;28;20055;-79
2022/01/22 11:16:48;;;;;;;17.75;2.20;;;9.40;99.90;;;;;;5065868;28;20449;-73
2022/01/22 11:19:19;;;;;;;13.07;2.38;;;9.40;99.90;;;;;;5063386;28;20052;-77
2022/01/22 11:21:52;;;;;;;14.30;2.78;;;9.30;99.90;;;;;;5064161;28;20121;-76
2022/01/22 11:24:21;;;;;;;17.42;2.97;;;9.40;99.90;;;;;;5063757;28;21427;-73
2022/01/22 11:27:08;;;;;;;10.60;2.00;;;9.40;99.90;;;;;;5086117;27;20054;-74
2022/01/22 11:29:41;;;;;;;;;;;9.40;99.90;;;;;;5046752;28;20051;-78
2022/01/22 11:32:12;;;;;;;17.10;2.72;;;9.30;99.90;;;;;;5063831;28;20397;-78
2022/01/22 11:34:40;;;;;;;16.83;2.75;;;9.40;99.90;;;;;;5062899;28;20781;-79
2022/01/22 11:37:20;;;;;;;18.13;2.67;;;9.30;99.90;;;;;;5059746;28;20101;-76
2022/01/22 11:39:46;;;;;;;16.23;2.45;;;9.30;99.90;;;;;;5062914;28;20087;-76
2022/01/22 11:42:14;;;;;;;22.85;3.38;;;9.30;99.90;;;;;;5090214;28;20044;-73
2022/01/22 11:44:49;;;;;;;19.55;3.20;;;9.30;99.90;;;;;;5092597;28;20139;-71
2022/01/22 11:47:19;;;;;;;18.63;3.40;;;9.00;99.90;;;;;;5093777;28;20050;-71
2022/01/22 11:50:04;;;;;;;19.13;3.35;;;9.00;99.90;;;;;;5092721;28;20444;-71
2022/01/22 11:52:33;;;;;;;20.02;3.35;;;9.00;99.90;;;;;;5093356;28;20047;-72
2022/01/22 11:55:00;;;;;;;16.38;3.35;;;9.10;99.90;;;;;;5093723;28;20043;-71
2022/01/22 11:57:31;;;;;;;14.75;3.10;;;9.10;99.90;;;;;;5092753;28;20478;-71
2022/01/22 12:00:19;;;;;;;22.83;3.92;;;9.10;99.90;;;;;;5093737;28;20066;-71
2022/01/22 12:02:45;;;;;;;22.10;4.50;;;8.90;99.90;;;;;;5092670;28;20059;-72
2022/01/22 12:05:11;;;;;;;21.80;5.30;;;8.90;99.90;;;;;;5098203;28;20032;-71
2022/01/22 12:07:37;;;;;;;27.13;6.00;;;8.90;99.90;;;;;;5096783;28;20502;-70
2022/01/22 12:10:22;;;;;;;29.00;5.28;;;8.80;99.90;;;;;;5103050;28;20052;-72
2022/01/22 12:15:41;;;;;;;28.85;5.40;;;8.80;99.90;;;;;;5066287;28;20048;-76
2022/01/22 12:18:14;;;;;;;33.40;6.10;;;8.70;99.90;;;;;;5090113;27;20056;-76
2022/01/22 12:23:29;;;;;;;23.92;6.32;;;8.90;99.90;;;;;;5069758;28;20134;-71
2022/01/22 12:25:56;;;;;;;29.73;5.78;;;9.00;99.90;;;;;;5090122;27;20066;-71
2022/01/22 12:28:39;;;;;;;31.85;6.05;;;9.00;99.90;;;;;;5067798;28;20163;-76
2022/01/22 12:31:09;;;;;;;29.75;5.80;;;9.00;99.90;;;;;;5067418;28;20090;-76
2022/01/22 12:33:38;;;;;;;24.95;5.97;;;8.80;99.90;;;;;;5089883;27;20056;-74
2022/01/22 12:36:18;;;;;;;21.45;5.35;;;8.80;99.90;;;;;;5067575;28;20048;-77
2022/01/22 12:38:57;;;;;;;18.73;6.20;;;8.50;99.90;;;;;;5066903;28;20056;-76
2022/01/22 12:41:30;;;;;;;18.70;5.65;;;8.40;99.90;;;;;;5091819;27;20056;-81
2022/01/22 12:44:12;;;;;;;22.25;4.95;;;8.40;99.90;;;;;;5091206;27;20144;-81
2022/01/22 12:46:39;;;;;;;24.70;5.95;;;8.50;99.90;;;;;;5065861;28;20052;-77
2022/01/22 12:49:07;;;;;;;24.35;5.68;;;8.50;99.90;;;;;;5068166;28;20055;-80
2022/01/22 12:51:34;;;;;;;25.52;6.10;;;8.60;99.90;;;;;;5067862;28;20147;-78
2022/01/22 12:54:00;;;;;;;27.13;6.05;;;8.60;99.90;;;;;;5067574;28;20595;-78
2022/01/22 12:59:04;;;;;;;23.75;5.70;;;8.70;99.90;;;;;;5066260;28;21245;-80
2022/01/22 13:01:32;;;;;;;22.70;5.75;;;8.70;99.90;;;;;;5090377;27;20095;-80
2022/01/22 13:04:01;;;;;;;16.77;5.15;;;8.70;99.90;;;;;;5066509;28;20203;-82
2022/01/22 13:06:38;;;;;;;18.77;5.28;;;8.80;99.90;;;;;;5090451;27;20492;-77
2022/01/22 13:09:04;;;;;;;32.67;5.72;;;8.70;99.90;;;;;;5066911;28;20733;-79
2022/01/22 13:11:32;;;;;;;23.10;5.72;;;8.70;99.90;;;;;;5065926;28;20044;-78
2022/01/22 13:13:58;;;;;;;31.20;6.43;;;8.70;99.90;;;;;;5065896;28;20055;-80
2022/01/22 13:16:25;;;;;;;19.63;4.88;;;8.70;99.90;;;;;;5088399;27;21195;-78
2022/01/22 13:19:02;;;;;;;28.30;5.63;;;8.60;99.90;;;;;;5066664;28;20052;-79
2022/01/22 13:21:30;;;;;;;25.73;4.63;;;8.60;99.90;;;;;;5065088;28;21602;-81
2022/01/22 13:24:05;;;;;;;19.83;4.10;;;8.60;99.90;;;;;;5066129;28;21195;-81
2022/01/22 13:26:59;;;;;;;22.88;4.25;;;8.80;99.90;;;;;;5065849;28;20043;-81
2022/01/22 13:29:34;;;;;;;19.35;4.00;;;8.60;99.90;;;;;;5066072;28;20493;-79
2022/01/22 13:32:15;;;;;;;15.23;3.47;;;8.70;99.90;;;;;;5065545;28;20048;-78
2022/01/22 13:40:51;;;;;;;15.60;3.53;;;8.80;99.90;;;;;;5067468;28;20887;-77
2022/01/22 13:49:03;;;;;;;13.32;2.50;;;8.50;99.90;;;;;;5074640;28;20063;-70
2022/01/22 13:51:30;;;;;;;14.65;2.17;;;8.40;99.90;;;;;;5075563;28;20094;-70
2022/01/22 13:53:57;;;;;;;19.67;3.97;;;8.30;99.90;;;;;;5074783;28;20048;-69
2022/01/22 13:56:52;;;;;;;12.68;2.08;;;8.30;99.90;;;;;;5074253;28;20471;-70
2022/01/22 13:59:25;;;;;;;18.98;3.00;;;8.20;99.90;;;;;;5084970;28;20048;-70
2022/01/22 14:02:20;;;;;;;18.13;2.20;;;8.30;99.90;;;;;;5076034;28;20133;-71
2022/01/22 14:04:52;;;;;;;14.43;2.22;;;8.40;99.90;;;;;;5074497;28;20110;-72
2022/01/22 14:07:37;;;;;;;12.85;2.00;;;8.50;99.90;;;;;;5074993;28;20068;-72
2022/01/22 14:10:07;;;;;;;11.38;2.30;;;8.40;99.90;;;;;;5073930;28;20495;-72
2022/01/22 14:12:45;;;;;;;18.17;2.15;;;8.60;99.90;;;;;;5074082;28;20399;-73
2022/01/22 14:15:15;;;;;;;17.58;2.47;;;8.60;99.90;;;;;;5107773;28;20056;-72
2022/01/22 14:18:13;;;;;;;14.38;2.55;;;8.60;99.90;;;;;;5076070;28;20052;-72
2022/01/22 14:20:48;;;;;;;13.52;2.50;;;8.50;99.90;;;;;;5073759;28;20084;-73
2022/01/22 14:23:31;;;;;;;9.32;2.25;;;8.50;99.90;;;;;;5061393;28;20082;-72
2022/01/22 14:26:12;;;;;;;16.00;2.95;;;8.30;99.90;;;;;;5073773;28;20044;-72
2022/01/22 14:28:43;;;;;;;11.48;1.83;;;8.40;99.90;;;;;;5072146;28;20084;-73
2022/01/22 14:31:36;;;;;;;18.98;2.05;;;8.30;99.90;;;;;;5090603;28;20117;-72
2022/01/22 14:34:07;;;;;;;14.10;2.00;;;8.40;99.90;;;;;;5090647;28;20063;-75
2022/01/22 14:36:45;;;;;;;11.23;1.90;;;8.30;99.90;;;;;;5086552;27;20063;-73
2022/01/22 14:43:46;;;;;;;16.67;2.35;;;8.40;99.90;;;;;;5064018;28;20177;-74
2022/01/22 14:44:55;;;;;;;13.10;2.65;;;8.50;99.90;;;;;;5062333;28;20060;-74
2022/01/22 14:47:22;;;;;;;10.30;1.88;;;8.50;99.90;;;;;;5064827;28;20479;-73
2022/01/22 14:49:48;;;;;;;8.90;1.80;;;8.50;99.90;;;;;;5046832;28;20048;-74
2022/01/22 14:52:17;;;;;;;17.92;2.22;;;8.50;99.90;;;;;;5086392;27;20047;-74
2022/01/22 14:54:45;;;;;;;11.93;2.28;;;8.60;99.90;;;;;;5063014;28;20059;-74
2022/01/22 14:57:12;;;;;;;13.93;1.83;;;8.40;99.90;;;;;;5086921;27;20487;-72